• Join FlightAware (Why Join?)
  • Login
  • US Flag 
04:20PM EDT


 

Airport Tracker/Info


-or-


 

Live Flight TrackerFlight Track Log ✈ N329JB ✈ 05-May-2013 ✈ KHPN - KTPA

Flight Track Log - Related Links

Times and Time Zones

All times are in EDT time to prevent confusion due to time zone crossing. See the N329JB flight status page for this flight to view local times or setup timezone preferences in your user account.

Time Position Orientation Groundspeed Altitude Reporting Facility
EDT Latitude Longitude Course Direction KTS MPH feet Rate Location/Type
08:53AM 41.0833 -73.7333 237° Southwest 149 171 1,800  Level New York TRACON
08:54AM 41.1000 -73.8000 288° West 209 241 2,900 1,080 Climbing New York TRACON
08:55AM 40.8869 -74.0430 237° Southwest  Level FlightAware Approximate
08:55AM 41.0833 -73.8667 252° West 252 290 3,900  Level New York TRACON
08:56AM 40.8273 -74.1611 234° Southwest  Level FlightAware Approximate
08:56AM 41.0500 -73.9667 246° West 294 338 7,500  Level New York TRACON
08:57AM 40.7646 -74.2761 234° Southwest  Level FlightAware Approximate
08:57AM 41.0000 -74.0333 225° Southwest 295 339 10,500  Level New York TRACON
08:58AM 40.7106 -74.3955 237° Southwest  Level FlightAware Approximate
08:58AM 40.9333 -74.1333 229° Southwest 341 392 12,200  Level New York TRACON
08:59AM 40.8833 -74.2333 237° Southwest 364 419 14,900 2,520 Climbing New York TRACON
08:59AM 40.8167 -74.3333 229° Southwest 386 444 17,000 1,080 Climbing New York TRACON
09:00AM 40.7500 -74.4500 233° Southwest 413 475 17,000  Level New York TRACON
09:02AM 40.6383 -74.6272 230° Southwest 414 476 17,000 240 Level New York Center
09:03AM 40.5722 -74.7328 231° Southwest 414 476 17,700 1,620 Climbing New York Center
09:04AM 40.5017 -74.8433 230° Southwest 414 476 20,300 2,160 Climbing New York Center
09:05AM 40.4333 -74.9564 232° Southwest 414 476 22,000 840 Climbing New York Center
09:06AM 40.3542 -75.0689 227° Southwest 414 476 22,000  Level New York Center
09:07AM 40.2750 -75.1808 227° Southwest 425 489 22,000 720 Level New York Center
09:08AM 40.1914 -75.2950 226° Southwest 430 495 23,500 1,440 Climbing New York Center
09:09AM 40.1078 -75.4117 227° Southwest 430 495 25,000 900 Climbing New York Center
09:10AM 40.0194 -75.5333 227° Southwest 446 513 25,300 1,140 Climbing New York Center
09:11AM 39.9286 -75.6625 228° Southwest 473 544 27,400 2,040 Climbing New York Center
09:12AM 39.8664 -75.8069 241° Southwest 473 544 29,500 2,040 Climbing New York Center
09:13AM 39.8619 -75.9581 268° West 422 486 31,500 1,920 Climbing New York Center
09:14AM 39.8203 -76.0983 249° West 422 486 33,400 1,320 Climbing New York Center
09:16AM 39.7200 -76.2903 236° Southwest 418 481 34,900 960 Climbing Washington Center
09:17AM 39.6525 -76.4136 235° Southwest 423 487 35,800 900 Climbing Washington Center
09:18AM 39.5764 -76.5500 234° Southwest 431 496 36,700 840 Climbing Washington Center
09:19AM 39.4944 -76.6592 226° Southwest 431 496 37,600 600 Climbing Washington Center
09:20AM 39.4039 -76.7519 218° Southwest 419 482 38,000 180 Climbing Washington Center
09:21AM 39.3111 -76.8469 218° Southwest 424 488 38,000  Level Washington Center
09:22AM 39.2164 -76.9417 218° Southwest 435 501 38,000  Level Washington Center
09:23AM 39.1236 -77.0417 220° Southwest 435 501 38,000  Level Washington Center
09:24AM 39.0286 -77.1386 218° Southwest 440 506 38,000  Level Washington Center
09:25AM 38.9333 -77.2328 218° Southwest 440 506 38,000  Level Washington Center
09:26AM 38.8403 -77.3294 219° Southwest 440 506 38,000  Level Washington Center
09:27AM 38.7453 -77.4231 218° Southwest 440 506 38,000  Level Washington Center
09:28AM 38.6606 -77.5086 218° Southwest 440 506 38,000  Level Washington Center
09:29AM 38.5672 -77.6044 219° Southwest 440 506 38,000  Level Washington Center
09:30AM 38.4739 -77.7000 219° Southwest 435 501 38,000  Level Washington Center
09:31AM 38.3803 -77.7928 218° Southwest 435 501 38,000  Level Washington Center
09:32AM 38.2869 -77.8853 218° Southwest 429 494 38,000  Level Washington Center
09:33AM 38.1956 -77.9775 218° Southwest 424 488 38,000  Level Washington Center
09:34AM 38.1039 -78.0669 218° Southwest 429 494 38,000  Level Washington Center
09:35AM 38.0017 -78.1664 217° Southwest 429 494 38,000  Level Washington Center
09:36AM 37.9122 -78.2556 218° Southwest 422 486 38,000  Level Washington Center
09:37AM 37.8183 -78.3442 217° Southwest 422 486 38,000  Level Washington Center
09:38AM 37.7375 -78.4200 217° Southwest 429 494 38,000  Level Washington Center
09:39AM 37.6456 -78.5083 217° Southwest 424 488 38,000  Level Washington Center
09:40AM 37.5497 -78.5936 215° Southwest 424 488 38,000  Level Washington Center
09:41AM 37.4578 -78.6817 217° Southwest 424 488 38,000  Level Washington Center
09:42AM 37.3658 -78.7667 216° Southwest 424 488 38,000  Level Washington Center
09:43AM 37.2631 -78.8617 216° Southwest 424 488 38,000  Level Washington Center
09:44AM 37.1731 -78.9464 217° Southwest 424 488 38,000  Level Washington Center
09:45AM 37.0808 -79.0336 217° Southwest 424 488 38,000  Level Washington Center
09:46AM 36.9889 -79.1178 216° Southwest 424 488 38,000  Level Washington Center
09:47AM 36.8922 -79.2044 216° Southwest 424 488 38,000  Level Washington Center
09:49AM 36.6939 -79.3864 216° Southwest 430 495 38,000  Level Atlanta Center
09:50AM 36.6008 -79.4694 216° Southwest 425 489 38,000  Level Atlanta Center
09:51AM 36.5161 -79.5467 216° Southwest 419 482 38,000  Level Atlanta Center
09:52AM 36.4233 -79.6319 216° Southwest 419 482 38,000  Level Atlanta Center
09:53AM 36.3306 -79.7169 216° Southwest 419 482 38,000  Level Atlanta Center
09:54AM 36.2394 -79.7989 216° Southwest 419 482 38,000  Level Atlanta Center
09:55AM 36.1383 -79.8892 216° Southwest 419 482 38,000  Level Atlanta Center
09:56AM 36.0472 -79.9683 215° Southwest 419 482 38,000  Level Atlanta Center
09:57AM 35.9425 -80.0247 204° Southwest 412 474 38,000  Level Atlanta Center
09:58AM 35.8400 -80.0761 202° Southwest 406 467 38,000  Level Atlanta Center
09:59AM 35.7475 -80.1214 202° Southwest 401 461 38,000  Level Atlanta Center
10:00AM 35.6450 -80.1800 205° Southwest 409 471 38,000  Level Atlanta Center
10:01AM 35.5300 -80.2364 202° Southwest 409 471 38,000  Level Atlanta Center
10:02AM 35.4272 -80.2897 203° Southwest 409 471 38,000  Level Atlanta Center
10:03AM 35.3244 -80.3400 202° Southwest 403 464 38,000  Level Atlanta Center
10:04AM 35.2197 -80.3931 202° Southwest 403 464 38,000  Level Atlanta Center
10:06AM 34.9758 -80.5111 202° Southwest 406 467 38,000  Level Jacksonville Center
10:07AM 34.8706 -80.5647 203° Southwest 406 467 38,000  Level Jacksonville Center
10:08AM 34.7733 -80.6128 202° Southwest 401 461 38,000  Level Jacksonville Center
10:09AM 34.6658 -80.6686 203° Southwest 401 461 38,000  Level Jacksonville Center
10:10AM 34.5583 -80.7144 199° South 408 470 38,000  Level Jacksonville Center
10:11AM 34.4444 -80.7725 203° Southwest 408 470 38,000  Level Jacksonville Center
10:12AM 34.3411 -80.8306 205° Southwest 400 460 38,000  Level Jacksonville Center
10:13AM 34.2542 -80.8678 199° South 394 453 38,000  Level Jacksonville Center
10:14AM 34.1506 -80.9178 202° Southwest 389 448 38,000  Level Jacksonville Center
10:15AM 34.0469 -80.9678 202° Southwest 394 453 38,000  Level Jacksonville Center
10:16AM 33.9433 -81.0150 201° Southwest 399 459 38,000  Level Jacksonville Center
10:17AM 33.8294 -81.0700 202° Southwest 405 466 38,000  Level Jacksonville Center
10:18AM 33.7364 -81.1169 203° Southwest 405 466 38,000  Level Jacksonville Center
10:19AM 33.6328 -81.1689 203° Southwest 410 472 38,000  Level Jacksonville Center
10:20AM 33.5289 -81.2206 203° Southwest 410 472 38,000  Level Jacksonville Center
10:21AM 33.4253 -81.2725 203° Southwest 410 472 38,000  Level Jacksonville Center
10:22AM 33.3194 -81.3217 201° Southwest 410 472 38,000  Level Jacksonville Center
10:23AM 33.2261 -81.3656 201° Southwest 410 472 38,000  Level Jacksonville Center
10:24AM 33.1142 -81.4219 203° Southwest 410 472 38,000  Level Jacksonville Center
10:25AM 33.0125 -81.4731 203° Southwest 410 472 38,000  Level Jacksonville Center
10:26AM 32.9086 -81.5217 201° Southwest 410 472 38,000  Level Jacksonville Center
10:27AM 32.8069 -81.5728 203° Southwest 410 472 38,000  Level Jacksonville Center
10:28AM 32.7008 -81.6236 202° Southwest 410 472 38,000  Level Jacksonville Center
10:29AM 32.5908 -81.6769 202° Southwest 398 458 38,000  Level Jacksonville Center
10:30AM 32.4972 -81.7225 202° Southwest 398 458 38,000  Level Jacksonville Center
10:31AM 32.3786 -81.7708 199° South 410 472 38,000  Level Jacksonville Center
10:32AM 32.2661 -81.7969 191° South 416 479 38,000  Level Jacksonville Center
10:33AM 32.1661 -81.8175 190° South 416 479 38,000  Level Jacksonville Center
10:34AM 32.0431 -81.8436 190° South 411 473 38,000  Level Jacksonville Center
10:35AM 31.9411 -81.8667 191° South 411 473 38,000  Level Jacksonville Center
10:36AM 31.8181 -81.8925 190° South 411 473 38,000  Level Jacksonville Center
10:37AM 31.7056 -81.9158 190° South 411 473 38,000  Level Jacksonville Center
10:38AM 31.6056 -81.9389 191° South 406 467 38,000  Level Jacksonville Center
10:39AM 31.4803 -81.9644 190° South 416 479 38,000  Level Jacksonville Center
10:40AM 31.3783 -81.9872 191° South 410 472 38,000  Level Jacksonville Center
10:41AM 31.2533 -82.0178 192° South 410 472 38,000  Level Jacksonville Center
10:42AM 31.1406 -82.0381 189° South 415 478 38,000  Level Jacksonville Center
10:43AM 31.0281 -82.0611 190° South 415 478 38,000  Level Jacksonville Center
10:44AM 30.9153 -82.0861 191° South 410 472 38,000  Level Jacksonville Center
10:45AM 30.8133 -82.1064 190° South 410 472 38,000  Level Jacksonville Center
10:46AM 30.7028 -82.1314 191° South 415 478 38,000  Level Jacksonville Center
10:47AM 30.5922 -82.1542 190° South 410 472 38,000  Level Jacksonville Center
10:48AM 30.4711 -82.1744 188° South 410 472 38,000  Level Jacksonville Center
10:49AM 30.3586 -82.1969 190° South 410 472 38,000 -120 Level Jacksonville Center
10:50AM 30.2481 -82.2194 190° South 410 472 37,800 -600 Descending Jacksonville Center
10:51AM 30.1356 -82.2442 191° South 411 473 36,800 -1,080 Descending Jacksonville Center
10:52AM 30.0250 -82.2664 190° South 411 473 35,700 -1,620 Descending Jacksonville Center
10:53AM 29.9228 -82.2933 193° South 411 473 33,600 -2,160 Descending Jacksonville Center
10:54AM 29.8081 -82.3156 190° South 411 473 31,400 -2,340 Descending Jacksonville Center
10:55AM 29.6828 -82.3381 189° South 416 479 29,000 -2,400 Descending Jacksonville Center
10:56AM 29.5681 -82.3553 187° South 416 479 26,700 -2,160 Descending Jacksonville Center
10:57AM 29.4553 -82.3439 175° South 411 473 24,700 -1,920 Descending Jacksonville Center
10:58AM 29.3425 -82.3303 174° South 406 467 22,900 -1,800 Descending Jacksonville Center
10:59AM 29.2361 -82.3167 174° South 401 461 21,100 -1,800 Descending Jacksonville Center
11:00AM 29.1317 -82.3056 175° South 396 456 19,300 -1,800 Descending Jacksonville Center
11:01AM 29.0272 -82.2942 175° South 386 444 17,500 -1,800 Descending Jacksonville Center
11:02AM 28.9228 -82.2828 175° South 386 444 15,800 -1,500 Descending Jacksonville Center
11:05AM 28.6833 -82.2500 173° South 343 395 12,200 -1,320 Descending Tampa TRACON
11:06AM 28.5667 -82.2500 180° South 339 390 11,000 -600 Descending Tampa TRACON
11:07AM 28.4833 -82.2667 190° South 333 383 11,000  Level Tampa TRACON
11:08AM 28.3833 -82.3000 196° South 331 381 11,000 -300 Level Tampa TRACON
11:09AM 28.3167 -82.3167 192° South 284 327 10,500 -1,260 Descending Tampa TRACON
11:10AM 28.2333 -82.3500 199° South 281 323 8,500 -1,740 Descending Tampa TRACON
11:11AM 28.1667 -82.3667 192° South 277 319 7,100 -1,740 Descending Tampa TRACON
11:12AM 28.0833 -82.3833 190° South 277 319 5,200 -1,080 Descending Tampa TRACON
11:13AM 28.0167 -82.4167 204° Southwest 278 320 5,000 -240 Descending Tampa TRACON
11:14AM 27.9500 -82.4167 180° South 287 330 4,800 -600 Descending Tampa TRACON
11:15AM 27.8833 -82.4167 180° South 287 330 4,000 -960 Descending Tampa TRACON
11:16AM 27.7833 -82.4500 196° South 282 325 2,800 -660 Descending Tampa TRACON
11:17AM 27.7500 -82.5167 241° Southwest 205 236 2,600 -120 Descending Tampa TRACON
11:18AM 27.7833 -82.5500 319° Northwest 168 193 2,600 -60 Level Tampa TRACON
11:19AM 27.8333 -82.5500 360° North 168 193 2,500 -480 Descending Tampa TRACON
11:20AM 27.8833 -82.5500 360° North 148 170 1,700 -780 Descending Tampa TRACON
11:21AM 27.9167 -82.5500 360° North 123 142 1,000 -720 Descending Tampa TRACON
11:22AM 27.9500 -82.5500 360° North 124 143 300 -720 Descending Tampa TRACON
11:24AM 27.9667 -82.5167 350° North  Level FlightAware Approximate
11:31AM 27.9755 -82.5332 350° North  Level Estimated